createdAt,value
2019-02-28T00:02:27.391Z,12.40
2019-02-28T00:04:53.654Z,11.90
2019-02-28T00:07:19.839Z,10.63
2019-02-28T00:09:46.004Z,11.77
2019-02-28T00:12:13.725Z,12.67
2019-02-28T00:14:40.467Z,12.00
2019-02-28T00:17:09.134Z,11.97
2019-02-28T00:19:34.702Z,11.73
2019-02-28T00:22:00.892Z,11.70
2019-02-28T00:24:30.033Z,11.30
2019-02-28T00:26:55.268Z,10.23
2019-02-28T00:29:21.454Z,11.00
2019-02-28T00:31:49.877Z,10.93
2019-02-28T00:34:15.775Z,11.07
2019-02-28T00:36:41.971Z,15.20
2019-02-28T00:39:08.129Z,15.03
2019-02-28T00:41:34.288Z,15.57
2019-02-28T00:44:00.491Z,12.67
2019-02-28T00:46:26.670Z,12.27
2019-02-28T00:51:37.020Z,13.57
2019-02-28T00:54:03.175Z,13.00
2019-02-28T00:56:29.336Z,12.30
2019-02-28T00:58:55.522Z,12.53
2019-02-28T01:01:21.793Z,13.20
2019-02-28T01:03:47.953Z,11.57
2019-02-28T01:06:14.156Z,14.57
2019-02-28T01:08:40.335Z,13.93
2019-02-28T01:11:06.496Z,12.13
2019-02-28T01:13:32.786Z,12.13
2019-02-28T01:15:59.052Z,11.73
2019-02-28T01:18:25.301Z,11.13
2019-02-28T01:20:51.489Z,14.33
2019-02-28T01:23:17.642Z,13.57
2019-02-28T01:25:43.803Z,10.57
2019-02-28T01:28:10.054Z,11.37
2019-02-28T01:30:37.078Z,11.07
2019-02-28T01:33:04.280Z,11.03
2019-02-28T01:35:30.576Z,11.33
2019-02-28T01:37:56.743Z,12.13
2019-02-28T01:40:22.897Z,13.20
2019-02-28T01:42:54.836Z,12.47
2019-02-28T01:45:21.013Z,14.57
2019-02-28T01:47:47.154Z,15.17
2019-02-28T01:50:13.341Z,15.80
2019-02-28T01:52:44.338Z,10.90
2019-02-28T01:55:09.353Z,9.37
2019-02-28T01:57:35.557Z,10.23
2019-02-28T02:00:03.329Z,10.43
2019-02-28T02:02:29.458Z,11.17
2019-02-28T02:04:55.645Z,11.37
2019-02-28T02:07:21.988Z,7.70
2019-02-28T02:09:48.239Z,12.63
2019-02-28T02:12:14.547Z,7.03
2019-02-28T02:14:44.763Z,15.53
2019-02-28T02:17:09.117Z,17.33
2019-02-28T02:19:35.306Z,7.07
2019-02-28T02:22:01.550Z,6.03
2019-02-28T02:24:28.897Z,6.27
2019-02-28T02:26:55.281Z,7.70
2019-02-28T02:29:21.524Z,5.13
2019-02-28T02:31:47.682Z,5.63
2019-02-28T02:34:13.884Z,5.40
2019-02-28T02:36:40.144Z,4.60
2019-02-28T02:39:06.507Z,5.13
2019-02-28T02:41:33.688Z,4.87
2019-02-28T02:44:00.967Z,4.73
2019-02-28T02:46:27.105Z,4.93
2019-02-28T02:48:53.307Z,5.43
2019-02-28T02:51:19.441Z,5.13
2019-02-28T02:53:45.584Z,5.17
2019-02-28T02:56:11.765Z,5.37
2019-02-28T02:58:38.026Z,4.90
2019-02-28T03:01:04.163Z,4.73
2019-02-28T03:03:30.356Z,4.80
2019-02-28T03:05:56.502Z,4.30
2019-02-28T03:08:22.648Z,3.93
2019-02-28T03:10:51.866Z,4.50
2019-02-28T03:13:16.980Z,4.50
2019-02-28T03:15:43.143Z,4.40
2019-02-28T03:18:09.329Z,4.83
2019-02-28T03:20:35.489Z,4.93
2019-02-28T03:23:03.167Z,4.50
2019-02-28T03:25:29.845Z,4.20
2019-02-28T03:27:56.857Z,3.73
2019-02-28T03:30:31.230Z,4.60
2019-02-28T03:32:51.321Z,4.43
2019-02-28T03:35:17.493Z,3.93
2019-02-28T03:37:43.638Z,4.70
2019-02-28T03:40:11.157Z,4.47
2019-02-28T03:42:37.291Z,4.13
2019-02-28T03:45:06.745Z,5.27
2019-02-28T03:47:33.037Z,4.73
2019-02-28T03:49:59.192Z,4.83
2019-02-28T03:52:25.351Z,4.17
2019-02-28T03:54:51.650Z,4.10
2019-02-28T03:57:17.913Z,3.97
2019-02-28T03:59:44.075Z,3.63
2019-02-28T04:02:10.263Z,4.77
2019-02-28T04:04:36.516Z,4.80
2019-02-28T04:07:02.794Z,4.30
2019-02-28T04:09:29.110Z,3.90
2019-02-28T04:11:55.254Z,4.23
2019-02-28T04:14:21.415Z,6.10
2019-02-28T04:16:52.779Z,4.37
2019-02-28T04:19:21.219Z,4.63
2019-02-28T04:21:46.660Z,4.83
2019-02-28T04:24:13.833Z,4.10
2019-02-28T04:26:40.143Z,3.47
2019-02-28T04:29:06.304Z,3.97
2019-02-28T04:31:33.404Z,4.70
2019-02-28T04:33:59.555Z,4.60
2019-02-28T04:36:25.707Z,3.77
2019-02-28T04:38:52.506Z,4.17
2019-02-28T04:41:18.777Z,4.47
2019-02-28T04:43:45.065Z,4.37
2019-02-28T04:46:11.339Z,4.30
2019-02-28T04:48:37.606Z,4.43
2019-02-28T04:51:05.771Z,3.80
2019-02-28T04:53:31.965Z,4.27
2019-02-28T04:55:58.123Z,4.43
2019-02-28T04:58:25.297Z,4.00
2019-02-28T05:00:52.279Z,4.40
2019-02-28T05:03:18.544Z,4.57
2019-02-28T05:05:46.938Z,5.10
2019-02-28T05:08:13.052Z,5.30
2019-02-28T05:10:39.223Z,5.73
2019-02-28T05:13:05.383Z,6.17
2019-02-28T05:15:31.572Z,10.60
2019-02-28T05:17:58.228Z,8.70
2019-02-28T05:20:24.395Z,23.57
2019-02-28T05:22:50.585Z,12.23
2019-02-28T05:25:18.675Z,14.13
2019-02-28T05:27:44.831Z,17.57
2019-02-28T05:30:17.991Z,14.73
2019-02-28T05:32:41.410Z,16.00
2019-02-28T05:35:07.667Z,15.33
2019-02-28T05:37:33.857Z,13.33
2019-02-28T05:40:05.503Z,9.60
2019-02-28T05:42:28.077Z,9.60
2019-02-28T05:44:54.267Z,4.87
2019-02-28T05:47:20.444Z,7.17
2019-02-28T05:49:46.610Z,9.50
2019-02-28T05:52:12.789Z,10.83
2019-02-28T05:54:38.962Z,10.30
2019-02-28T05:57:08.063Z,10.57
2019-02-28T05:59:33.242Z,10.93
2019-02-28T06:01:59.390Z,9.77
2019-02-28T06:04:25.552Z,11.57
2019-02-28T06:06:54.630Z,11.07
2019-02-28T06:09:19.957Z,11.17
2019-02-28T06:11:46.174Z,9.37
2019-02-28T06:14:12.766Z,13.83
2019-02-28T06:16:39.170Z,12.53
2019-02-28T06:19:08.284Z,13.83
2019-02-28T06:21:33.607Z,10.30
2019-02-28T06:23:59.864Z,8.40
2019-02-28T06:26:26.203Z,6.27
2019-02-28T06:28:52.395Z,8.20
2019-02-28T06:31:18.558Z,3.00
2019-02-28T06:33:44.807Z,7.30
2019-02-28T06:36:11.161Z,5.87
2019-02-28T06:38:38.846Z,5.10
2019-02-28T06:41:07.612Z,5.77
2019-02-28T06:43:33.227Z,4.83
2019-02-28T06:45:59.430Z,5.23
2019-02-28T06:48:26.717Z,3.60
2019-02-28T06:50:53.039Z,8.67
2019-02-28T06:53:19.289Z,6.87
2019-02-28T06:55:47.976Z,3.50
2019-02-28T06:58:14.168Z,5.67
2019-02-28T07:00:40.348Z,4.83
2019-02-28T07:03:06.581Z,5.40
2019-02-28T07:05:32.776Z,5.70
2019-02-28T07:07:59.035Z,5.93
2019-02-28T07:10:25.196Z,5.00
2019-02-28T07:12:51.502Z,5.63
2019-02-28T07:15:23.347Z,5.13
2019-02-28T07:17:47.474Z,4.50
2019-02-28T07:20:19.840Z,3.93
2019-02-28T07:22:46.107Z,5.93
2019-02-28T07:25:12.598Z,6.13
2019-02-28T07:27:40.159Z,6.77
2019-02-28T07:30:19.600Z,4.40
2019-02-28T07:32:45.988Z,3.47
2019-02-28T07:35:12.211Z,4.03
2019-02-28T07:37:38.476Z,3.87
2019-02-28T07:40:15.549Z,3.63
2019-02-28T07:42:40.495Z,4.20
2019-02-28T07:45:08.954Z,2.80
2019-02-28T07:47:35.149Z,4.43
2019-02-28T07:50:01.313Z,3.23
2019-02-28T07:52:32.430Z,4.33
2019-02-28T07:54:55.902Z,4.30
2019-02-28T07:57:22.531Z,3.77
2019-02-28T07:59:48.733Z,3.77
2019-02-28T08:02:14.926Z,4.27
2019-02-28T08:04:41.092Z,3.83
2019-02-28T08:07:07.260Z,3.13
2019-02-28T08:09:33.553Z,3.67
2019-02-28T08:11:59.810Z,3.90
2019-02-28T08:14:26.043Z,3.47
2019-02-28T08:16:52.278Z,3.27
2019-02-28T08:19:18.580Z,3.40
2019-02-28T08:21:49.398Z,2.67
2019-02-28T08:24:12.978Z,3.90
2019-02-28T08:26:39.128Z,3.67
2019-02-28T08:29:07.984Z,3.70
2019-02-28T08:31:33.393Z,3.83
2019-02-28T08:33:59.575Z,3.63
2019-02-28T08:36:26.161Z,3.63
2019-02-28T08:38:52.469Z,3.63
2019-02-28T08:41:18.743Z,4.00
2019-02-28T08:43:47.865Z,4.37
2019-02-28T08:46:13.899Z,3.80
2019-02-28T08:48:40.204Z,4.10
2019-02-28T08:51:06.447Z,4.13
2019-02-28T08:53:32.626Z,3.97
2019-02-28T08:56:11.053Z,4.20
2019-02-28T08:58:38.517Z,3.53
2019-02-28T09:01:06.651Z,3.87
2019-02-28T09:03:32.977Z,4.00
2019-02-28T09:06:00.904Z,4.03
2019-02-28T09:08:27.347Z,3.67
2019-02-28T09:10:53.519Z,4.13
2019-02-28T09:13:19.821Z,3.57
2019-02-28T09:15:45.991Z,3.10
2019-02-28T09:18:12.159Z,4.30
2019-02-28T09:20:41.402Z,4.23
2019-02-28T09:23:07.458Z,4.40
2019-02-28T09:25:33.732Z,4.33
2019-02-28T09:27:59.930Z,4.03
2019-02-28T09:30:40.986Z,3.77
2019-02-28T09:33:07.207Z,3.07
2019-02-28T09:35:33.358Z,4.30
2019-02-28T09:38:00.310Z,3.60
2019-02-28T09:40:29.438Z,5.20
2019-02-28T09:42:55.457Z,4.20
2019-02-28T09:45:26.621Z,6.13
2019-02-28T09:47:52.908Z,4.90
2019-02-28T09:50:22.498Z,4.77
2019-02-28T09:52:48.330Z,4.50
2019-02-28T09:55:14.642Z,4.70
2019-02-28T09:57:40.794Z,5.23
2019-02-28T10:00:16.389Z,4.57
2019-02-28T10:02:43.921Z,4.50
2019-02-28T10:05:11.921Z,3.63
2019-02-28T10:07:38.357Z,4.77
2019-02-28T10:10:10.325Z,5.03
2019-02-28T10:12:39.418Z,3.57
2019-02-28T10:15:08.302Z,4.60
2019-02-28T10:17:34.549Z,3.97
2019-02-28T10:20:00.714Z,4.87
2019-02-28T10:22:26.909Z,3.57
2019-02-28T10:24:53.073Z,3.67
2019-02-28T10:27:19.224Z,4.70
2019-02-28T10:29:45.527Z,4.50
2019-02-28T10:32:11.786Z,4.13
2019-02-28T10:34:37.941Z,3.80
2019-02-28T10:37:04.383Z,4.13
2019-02-28T10:39:30.781Z,4.10
2019-02-28T10:41:56.962Z,4.60
2019-02-28T10:44:23.254Z,4.20
2019-02-28T10:46:50.300Z,4.17
2019-02-28T10:49:17.487Z,4.17
2019-02-28T10:51:44.682Z,4.07
2019-02-28T10:54:14.581Z,3.70
2019-02-28T10:56:39.931Z,3.83
2019-02-28T10:59:06.126Z,5.20
2019-02-28T11:01:32.277Z,3.93
2019-02-28T11:04:00.214Z,3.80
2019-02-28T11:06:28.290Z,4.90
2019-02-28T11:08:54.910Z,4.23
2019-02-28T11:11:21.073Z,4.07
2019-02-28T11:13:47.353Z,3.53
2019-02-28T11:16:13.916Z,4.47
2019-02-28T11:18:41.895Z,3.80
2019-02-28T11:21:08.895Z,4.30
2019-02-28T11:23:35.153Z,5.53
2019-02-28T11:26:01.324Z,3.97
2019-02-28T11:28:28.226Z,4.43
2019-02-28T11:30:55.782Z,5.30
2019-02-28T11:33:22.870Z,4.10
2019-02-28T11:35:49.138Z,4.20
2019-02-28T11:38:20.479Z,4.43
2019-02-28T11:40:44.649Z,3.97
2019-02-28T11:43:11.172Z,4.33
2019-02-28T11:45:40.739Z,3.20
2019-02-28T11:48:10.010Z,5.23
2019-02-28T11:50:41.007Z,4.83
2019-02-28T11:53:06.020Z,4.83
2019-02-28T11:55:32.252Z,4.80
2019-02-28T11:57:58.654Z,4.77
2019-02-28T12:00:38.521Z,4.83
2019-02-28T12:03:05.693Z,4.50
2019-02-28T12:05:32.177Z,4.33
2019-02-28T12:07:58.435Z,4.80
2019-02-28T12:10:26.919Z,2.57
2019-02-28T12:12:53.092Z,4.10
2019-02-28T12:15:28.054Z,4.60
2019-02-28T12:17:54.223Z,4.40
2019-02-28T12:20:25.885Z,4.77
2019-02-28T12:22:49.977Z,4.77
2019-02-28T12:25:20.231Z,4.80
2019-02-28T12:27:46.386Z,5.70
2019-02-28T12:30:16.086Z,4.70
2019-02-28T12:32:43.521Z,4.33
2019-02-28T12:35:10.314Z,5.60
2019-02-28T12:37:36.504Z,5.07
2019-02-28T12:40:07.361Z,4.37
2019-02-28T12:42:34.808Z,4.90
2019-02-28T12:45:01.692Z,4.70
2019-02-28T12:47:29.749Z,4.30
2019-02-28T12:49:57.256Z,3.47
2019-02-28T12:52:24.104Z,3.63
2019-02-28T12:54:50.269Z,4.07
2019-02-28T12:57:19.321Z,4.60
2019-02-28T12:59:46.056Z,4.07
2019-02-28T13:02:12.611Z,3.97
2019-02-28T13:04:38.820Z,4.37
2019-02-28T13:07:05.072Z,3.63
2019-02-28T13:09:31.232Z,4.13
2019-02-28T13:11:57.389Z,3.40
2019-02-28T13:14:23.582Z,2.63
2019-02-28T13:16:49.738Z,3.40
2019-02-28T13:19:16.470Z,2.73
2019-02-28T13:21:46.779Z,3.37
2019-02-28T13:24:12.246Z,2.53
2019-02-28T13:26:38.413Z,2.80
2019-02-28T13:29:04.679Z,2.63
2019-02-28T13:31:30.957Z,2.87
2019-02-28T13:33:57.121Z,3.03
2019-02-28T13:36:23.427Z,3.33
2019-02-28T13:38:54.453Z,3.63
2019-02-28T13:41:18.368Z,3.20
2019-02-28T13:43:45.771Z,3.10
2019-02-28T13:46:13.036Z,3.23
2019-02-28T13:48:39.391Z,3.30
2019-02-28T13:51:08.458Z,3.10
2019-02-28T13:53:33.750Z,3.33
2019-02-28T13:56:00.017Z,3.30
2019-02-28T13:58:26.306Z,4.10
2019-02-28T14:00:52.458Z,5.40
2019-02-28T14:03:18.622Z,3.87
2019-02-28T14:05:44.825Z,4.40
2019-02-28T14:08:12.290Z,5.83
2019-02-28T14:10:38.780Z,4.00
2019-02-28T14:13:05.128Z,3.07
2019-02-28T14:15:36.706Z,3.60
2019-02-28T14:18:03.573Z,4.93
2019-02-28T14:20:29.875Z,5.40
2019-02-28T14:22:56.144Z,2.77
2019-02-28T14:25:22.997Z,2.80
2019-02-28T14:27:49.194Z,3.03
2019-02-28T14:30:16.649Z,3.23
2019-02-28T14:32:44.097Z,3.00
2019-02-28T14:35:14.131Z,5.23
2019-02-28T14:37:40.291Z,3.90
2019-02-28T14:40:14.526Z,6.83
2019-02-28T14:42:40.796Z,5.13
2019-02-28T14:45:11.180Z,6.80
2019-02-28T14:47:37.455Z,2.50
2019-02-28T14:50:07.141Z,3.40
2019-02-28T14:52:35.747Z,5.03
2019-02-28T14:55:01.357Z,2.97
2019-02-28T14:57:27.576Z,4.03
2019-02-28T14:59:53.838Z,3.47
2019-02-28T15:02:19.991Z,4.07
2019-02-28T15:04:46.284Z,4.23
2019-02-28T15:07:12.561Z,8.23
2019-02-28T15:09:38.728Z,6.70
2019-02-28T15:12:05.031Z,5.07
2019-02-28T15:14:31.213Z,4.70
2019-02-28T15:16:57.383Z,3.60
2019-02-28T15:19:25.410Z,4.17
2019-02-28T15:21:51.731Z,4.90
2019-02-28T15:24:17.901Z,8.10
2019-02-28T15:26:44.234Z,4.77
2019-02-28T15:29:10.481Z,3.97
2019-02-28T15:31:36.767Z,2.90
2019-02-28T15:34:05.491Z,3.07
2019-02-28T15:36:31.040Z,4.40
2019-02-28T15:38:57.199Z,4.57
2019-02-28T15:41:23.410Z,4.30
2019-02-28T15:43:50.407Z,3.97
2019-02-28T15:46:17.816Z,3.77
2019-02-28T15:48:44.012Z,3.10
2019-02-28T15:51:10.278Z,3.23
2019-02-28T15:53:36.552Z,3.90
2019-02-28T15:56:10.556Z,4.90
2019-02-28T15:58:31.122Z,3.67
2019-02-28T16:00:57.551Z,2.70
2019-02-28T16:03:23.727Z,3.30
2019-02-28T16:05:49.889Z,2.70
2019-02-28T16:08:16.162Z,4.33
2019-02-28T16:10:52.585Z,3.17
2019-02-28T16:13:10.637Z,3.00
2019-02-28T16:15:36.908Z,3.17
2019-02-28T16:18:04.031Z,4.50
2019-02-28T16:20:31.913Z,4.80
2019-02-28T16:22:58.497Z,5.20
2019-02-28T16:25:27.314Z,5.47
2019-02-28T16:27:53.789Z,5.43
2019-02-28T16:30:20.054Z,6.83
2019-02-28T16:32:49.129Z,10.10
2019-02-28T16:35:15.476Z,5.33
2019-02-28T16:37:41.827Z,4.43
2019-02-28T16:40:14.147Z,3.97
2019-02-28T16:42:43.426Z,5.47
2019-02-28T16:45:13.884Z,6.07
2019-02-28T16:47:40.247Z,5.03
2019-02-28T16:50:09.442Z,3.67
2019-02-28T16:52:37.300Z,4.13
2019-02-28T16:55:07.422Z,3.80
2019-02-28T16:57:33.689Z,4.00
2019-02-28T16:59:59.852Z,3.77
2019-02-28T17:02:26.412Z,3.83
2019-02-28T17:04:52.976Z,6.07
2019-02-28T17:07:19.259Z,5.43
2019-02-28T17:09:45.576Z,3.70
2019-02-28T17:12:28.464Z,12.63
2019-02-28T17:14:54.764Z,26.40
2019-02-28T17:17:22.838Z,9.90
2019-02-28T17:19:49.006Z,10.10
2019-02-28T17:22:15.325Z,14.67
2019-02-28T17:24:45.873Z,7.23
2019-02-28T17:27:11.997Z,5.60
2019-02-28T17:29:40.103Z,5.73
2019-02-28T17:32:06.375Z,5.37
2019-02-28T17:34:33.075Z,13.20
2019-02-28T17:36:59.361Z,7.73
2019-02-28T17:39:25.535Z,4.93
2019-02-28T17:41:51.811Z,8.60
2019-02-28T17:44:24.591Z,8.07
2019-02-28T17:47:03.503Z,7.57
2019-02-28T17:49:45.849Z,9.53
2019-02-28T17:52:15.733Z,9.07
2019-02-28T17:54:57.289Z,16.10
2019-02-28T17:57:31.641Z,10.30
2019-02-28T18:00:01.563Z,10.73
2019-02-28T18:02:51.004Z,11.90
2019-02-28T18:05:30.466Z,12.73
2019-02-28T18:08:24.918Z,22.10
2019-02-28T18:11:11.302Z,8.73
2019-02-28T18:13:47.072Z,9.20
2019-02-28T18:16:35.293Z,13.67
2019-02-28T18:19:21.696Z,14.57
2019-02-28T18:22:00.693Z,18.40
2019-02-28T18:24:51.749Z,21.20
2019-02-28T18:27:22.572Z,8.20
2019-02-28T18:29:52.351Z,8.17
2019-02-28T18:32:18.659Z,9.73
2019-02-28T18:34:44.968Z,8.97
2019-02-28T18:37:11.889Z,19.47
2019-02-28T18:39:38.201Z,10.23
2019-02-28T18:42:04.506Z,5.33
2019-02-28T18:44:30.795Z,3.83
2019-02-28T18:46:57.050Z,4.60
2019-02-28T18:49:26.579Z,4.03
2019-02-28T18:51:52.886Z,4.47
2019-02-28T18:54:19.151Z,5.33
2019-02-28T18:56:45.435Z,4.60
2019-02-28T18:59:11.600Z,6.03
2019-02-28T19:01:37.786Z,4.83
2019-02-28T19:04:04.080Z,5.40
2019-02-28T19:06:30.261Z,4.27
2019-02-28T19:08:56.523Z,5.53
2019-02-28T19:11:22.827Z,4.80
2019-02-28T19:13:49.025Z,4.83
2019-02-28T19:16:15.547Z,4.23
2019-02-28T19:18:41.924Z,4.47
2019-02-28T19:21:08.088Z,4.72
2019-02-28T19:23:34.285Z,4.50
2019-02-28T19:26:00.585Z,4.53
2019-02-28T19:28:26.858Z,4.13
2019-02-28T19:30:53.145Z,3.50
2019-02-28T19:33:19.341Z,3.63
2019-02-28T19:35:45.627Z,5.30
2019-02-28T19:38:11.887Z,2.97
2019-02-28T19:40:38.185Z,3.57
2019-02-28T19:43:04.364Z,4.83
2019-02-28T19:45:42.744Z,3.97
2019-02-28T19:48:09.041Z,3.37
2019-02-28T19:50:35.313Z,3.60
2019-02-28T19:53:01.624Z,3.70
2019-02-28T19:55:27.945Z,3.93
2019-02-28T19:57:54.109Z,3.73
2019-02-28T20:00:20.752Z,3.87
2019-02-28T20:02:47.008Z,4.57
2019-02-28T20:05:13.863Z,3.30
2019-02-28T20:07:40.055Z,3.13
2019-02-28T20:10:09.732Z,4.40
2019-02-28T20:12:35.886Z,3.80
2019-02-28T20:15:03.308Z,3.60
2019-02-28T20:17:29.583Z,3.47
2019-02-28T20:19:55.758Z,3.47
2019-02-28T20:22:22.072Z,3.10
2019-02-28T20:24:48.343Z,3.40
2019-02-28T20:27:14.627Z,3.33
2019-02-28T20:29:40.918Z,3.93
2019-02-28T20:32:07.104Z,3.33
2019-02-28T20:34:33.364Z,3.40
2019-02-28T20:36:59.586Z,2.83
2019-02-28T20:39:25.959Z,3.13
2019-02-28T20:41:52.119Z,3.07
2019-02-28T20:44:18.337Z,3.37
2019-02-28T20:46:44.608Z,3.53
2019-02-28T20:49:10.892Z,4.53
2019-02-28T20:51:37.199Z,3.30
2019-02-28T20:54:03.480Z,4.13
2019-02-28T20:56:29.651Z,4.73
2019-02-28T20:58:55.984Z,4.10
2019-02-28T21:01:22.279Z,3.40
2019-02-28T21:03:48.540Z,3.73
2019-02-28T21:06:14.878Z,3.37
2019-02-28T21:08:41.049Z,3.20
2019-02-28T21:11:07.311Z,3.30
2019-02-28T21:13:33.617Z,3.33
2019-02-28T21:15:59.893Z,3.10
2019-02-28T21:18:26.080Z,3.63
2019-02-28T21:20:52.292Z,3.80
2019-02-28T21:23:18.568Z,4.53
2019-02-28T21:25:44.839Z,4.13
2019-02-28T21:28:11.157Z,3.40
2019-02-28T21:30:37.433Z,4.47
2019-02-28T21:33:03.624Z,3.40
2019-02-28T21:35:29.828Z,3.63
2019-02-28T21:37:56.033Z,4.07
2019-02-28T21:40:22.782Z,3.87
2019-02-28T21:42:48.971Z,3.47
2019-02-28T21:45:17.343Z,4.17
2019-02-28T21:47:43.503Z,3.83
2019-02-28T21:50:12.025Z,3.63
2019-02-28T21:52:38.315Z,3.40
2019-02-28T21:55:07.758Z,3.70
2019-02-28T21:57:33.958Z,4.10
2019-02-28T22:00:00.285Z,3.90
2019-02-28T22:02:26.618Z,3.60
2019-02-28T22:04:52.929Z,3.40
2019-02-28T22:07:19.111Z,4.23
2019-02-28T22:09:45.258Z,4.80
2019-02-28T22:12:11.678Z,4.63
2019-02-28T22:14:37.975Z,3.90
2019-02-28T22:17:04.322Z,5.17
2019-02-28T22:19:30.615Z,4.97
2019-02-28T22:21:56.920Z,4.40
2019-02-28T22:24:23.228Z,6.03
2019-02-28T22:26:49.563Z,5.33
2019-02-28T22:29:15.886Z,5.00
2019-02-28T22:31:52.979Z,3.50
2019-02-28T22:34:23.828Z,3.90
2019-02-28T22:36:50.145Z,3.00
2019-02-28T22:39:16.505Z,3.40
2019-02-28T22:41:42.776Z,4.07
2019-02-28T22:44:09.099Z,4.50
2019-02-28T22:46:35.443Z,3.30
2019-02-28T22:49:01.762Z,3.93
2019-02-28T22:51:28.079Z,4.60
2019-02-28T22:53:54.415Z,4.63
2019-02-28T22:56:21.774Z,6.47
2019-02-28T22:58:48.071Z,4.03
2019-02-28T23:01:17.992Z,4.10
2019-02-28T23:03:44.262Z,4.83
2019-02-28T23:06:10.436Z,4.97
2019-02-28T23:08:36.763Z,3.20
2019-02-28T23:11:03.541Z,3.63
2019-02-28T23:13:29.700Z,4.27
2019-02-28T23:15:56.019Z,4.50
2019-02-28T23:18:22.299Z,3.83
2019-02-28T23:20:48.578Z,3.73
2019-02-28T23:23:14.907Z,2.87
2019-02-28T23:25:41.184Z,3.10
2019-02-28T23:28:11.027Z,3.80
2019-02-28T23:31:06.975Z,3.03
2019-02-28T23:33:33.282Z,2.97
2019-02-28T23:35:59.578Z,3.47
2019-02-28T23:38:25.924Z,2.70
2019-02-28T23:40:54.895Z,3.27
2019-02-28T23:43:21.173Z,3.17
2019-02-28T23:45:47.387Z,3.47
2019-02-28T23:48:13.547Z,5.77
2019-02-28T23:50:39.819Z,5.60
2019-02-28T23:53:06.031Z,5.57
2019-02-28T23:55:32.326Z,5.03
2019-02-28T23:57:58.627Z,4.53
